Terminal Aerodrome Forecast
Issued by NWS Oklahoma City, OK

Home | Current Version | Previous Version | Text Only | Print | Product List | Glossary On
Versions: 1 2 3 4 5 6 7 8 9 10 11 12
000
FTUS44 KOUN 152343
TAFOUN
TAF
KOUN 152343Z 1600/1624 19009KT P6SM SKC
     FM160600 19013KT P6SM SKC
     FM161500 19015G24KT P6SM SCT250
     FM162000 19020G28KT P6SM FEW150 BKN250=

USA.gov is the U.S. government's official web portal to all federal, state and local government web resources and services.